Time,TemperatureF,DewpointF,PressureIn,WindDirection,WindDirectionDegrees,WindSpeedMPH,WindSpeedGustMPH,Humidity,HourlyPrecipIn,Conditions,Clouds,dailyrainin,SoftwareType,DateUTC
2013-07-27 00:02:00,66.0,62.0,30.03,ESE,104,0.0,1.0,88,0.00,,,0.00,,2013-07-27 04:02:00,
2013-07-27 00:12:00,66.0,62.0,30.03,ESE,104,0.0,1.0,88,0.00,,,0.00,,2013-07-27 04:12:00,
2013-07-27 00:22:00,66.0,62.0,30.03,ESE,105,0.0,1.0,86,0.00,,,0.00,,2013-07-27 04:22:00,
2013-07-27 00:43:00,64.0,60.0,30.03,SE,144,0.0,0.0,88,0.00,,,0.00,,2013-07-27 04:43:00,
2013-07-27 00:53:00,64.0,60.0,30.03,SE,144,0.0,0.0,88,0.00,,,0.00,,2013-07-27 04:53:00,
2013-07-27 01:02:00,64.0,61.0,30.03,ESE,105,0.0,1.0,90,0.00,,,0.00,,2013-07-27 05:02:00,
2013-07-27 01:12:00,64.0,61.0,30.03,ESE,105,0.0,1.0,90,0.00,,,0.00,,2013-07-27 05:12:00,
2013-07-27 01:22:00,64.0,61.0,30.03,ESE,111,0.0,1.0,91,0.00,,,0.00,,2013-07-27 05:22:00,
2013-07-27 01:33:00,64.0,61.0,30.03,NE,43,0.0,1.0,91,0.00,,,0.00,,2013-07-27 05:33:00,
2013-07-27 01:43:00,63.0,61.0,30.03,NE,43,0.0,1.0,92,0.00,,,0.00,,2013-07-27 05:43:00,
2013-07-27 01:52:00,63.0,61.0,30.03,NE,43,0.0,1.0,92,0.00,,,0.00,,2013-07-27 05:52:00,
2013-07-27 02:02:00,63.0,61.0,30.03,NE,43,0.0,0.0,93,0.00,,,0.00,,2013-07-27 06:02:00,
2013-07-27 02:22:00,63.0,61.0,30.03,WSW,253,0.0,0.0,93,0.00,,,0.00,,2013-07-27 06:22:00,
2013-07-27 02:33:00,62.0,60.0,30.03,WSW,254,0.0,1.0,94,0.00,,,0.00,,2013-07-27 06:33:00,
2013-07-27 02:52:00,62.0,60.0,30.03,WSW,255,0.0,1.0,94,0.00,,,0.00,,2013-07-27 06:52:00,
2013-07-27 03:02:00,62.0,60.0,30.03,WSW,258,0.0,1.0,94,0.00,,,0.00,,2013-07-27 07:02:00,
2013-07-27 03:22:00,62.0,61.0,30.03,WSW,258,0.0,0.0,95,0.00,,,0.00,,2013-07-27 07:22:00,
2013-07-27 03:34:00,61.0,60.0,30.02,West,261,0.0,0.0,95,0.00,,,0.00,,2013-07-27 07:34:00,
2013-07-27 03:44:00,61.0,60.0,30.02,West,262,0.0,0.0,95,0.00,,,0.00,,2013-07-27 07:44:00,
2013-07-27 03:52:00,61.0,60.0,30.02,West,262,0.0,0.0,95,0.00,,,0.00,,2013-07-27 07:52:00,
2013-07-27 04:02:00,61.0,60.0,30.02,West,262,0.0,1.0,95,0.00,,,0.00,,2013-07-27 08:02:00,
2013-07-27 04:22:00,61.0,60.0,30.02,West,263,0.0,0.0,95,0.00,,,0.00,,2013-07-27 08:22:00,
2013-07-27 04:32:00,60.0,59.0,30.02,West,263,0.0,0.0,95,0.00,,,0.00,,2013-07-27 08:32:00,
2013-07-27 04:43:00,60.0,59.0,30.02,NNE,24,0.0,0.0,96,0.00,,,0.00,,2013-07-27 08:43:00,
2013-07-27 04:53:00,60.0,59.0,30.02,NNE,24,0.0,0.0,96,0.00,,,0.00,,2013-07-27 08:53:00,
2013-07-27 05:02:00,60.0,59.0,30.02,NNE,26,0.0,1.0,96,0.00,,,0.00,,2013-07-27 09:02:00,
2013-07-27 05:22:00,60.0,59.0,30.03,NNE,25,0.0,0.0,96,0.00,,,0.00,,2013-07-27 09:22:00,
2013-07-27 05:33:00,60.0,59.0,30.03,NNE,25,0.0,0.0,96,0.00,,,0.00,,2013-07-27 09:33:00,
2013-07-27 05:52:00,59.0,58.0,30.03,NNE,25,0.0,0.0,96,0.00,,,0.00,,2013-07-27 09:52:00,
2013-07-27 06:02:00,59.0,58.0,30.03,NNE,25,0.0,0.0,96,0.00,,,0.00,,2013-07-27 10:02:00,
2013-07-27 06:12:00,59.0,58.0,30.03,NNE,25,0.0,0.0,96,0.00,,,0.00,,2013-07-27 10:12:00,
2013-07-27 06:22:00,59.0,58.0,30.04,NNE,25,0.0,0.0,97,0.00,,,0.00,,2013-07-27 10:22:00,
2013-07-27 06:32:00,59.0,58.0,30.04,NNE,25,0.0,0.0,97,0.00,,,0.00,,2013-07-27 10:32:00,
2013-07-27 06:43:00,59.0,58.0,30.04,NNE,25,0.0,0.0,97,0.00,,,0.00,,2013-07-27 10:43:00,
2013-07-27 06:52:00,59.0,58.0,30.04,NNE,25,0.0,0.0,97,0.00,,,0.00,,2013-07-27 10:52:00,
2013-07-27 07:02:00,59.0,58.0,30.04,NNE,25,0.0,0.0,97,0.00,,,0.00,,2013-07-27 11:02:00,
2013-07-27 07:22:00,60.0,59.0,30.03,North,359,0.0,1.0,97,0.00,,,0.00,,2013-07-27 11:22:00,
2013-07-27 07:32:00,61.0,60.0,30.03,North,359,0.0,0.0,96,0.00,,,0.00,,2013-07-27 11:32:00,
2013-07-27 07:44:00,62.0,60.0,30.03,North,358,0.0,1.0,94,0.00,,,0.00,,2013-07-27 11:44:00,
2013-07-27 07:52:00,62.0,60.0,30.03,North,358,0.0,1.0,94,0.00,,,0.00,,2013-07-27 11:52:00,
2013-07-27 08:03:00,63.0,60.0,30.03,North,359,0.0,1.0,91,0.00,,,0.00,,2013-07-27 12:03:00,
2013-07-27 08:22:00,64.0,61.0,30.04,West,261,0.0,1.0,89,0.00,,,0.00,,2013-07-27 12:22:00,
2013-07-27 08:33:00,66.0,62.0,30.04,West,263,0.0,1.0,86,0.00,,,0.00,,2013-07-27 12:33:00,
2013-07-27 08:43:00,69.0,64.0,30.04,West,262,0.0,1.0,83,0.00,,,0.00,,2013-07-27 12:43:00,
2013-07-27 08:52:00,69.0,64.0,30.04,West,262,0.0,1.0,83,0.00,,,0.00,,2013-07-27 12:52:00,
2013-07-27 09:02:00,69.0,64.0,30.04,West,262,0.0,1.0,83,0.00,,,0.00,,2013-07-27 13:02:00,
2013-07-27 09:12:00,70.0,63.0,30.04,West,267,0.0,2.0,79,0.00,,,0.00,,2013-07-27 13:12:00,
2013-07-27 09:22:00,72.0,64.0,30.03,SSW,202,0.0,3.0,76,0.00,,,0.00,,2013-07-27 13:22:00,
2013-07-27 09:44:00,74.0,64.0,30.04,SE,135,1.0,3.0,70,0.00,,,0.00,,2013-07-27 13:44:00,
2013-07-27 09:53:00,74.0,64.0,30.04,SE,135,1.0,3.0,70,0.00,,,0.00,,2013-07-27 13:53:00,
2013-07-27 10:02:00,76.0,64.0,30.04,WNW,301,2.0,6.0,66,0.00,,,0.00,,2013-07-27 14:02:00,
2013-07-27 10:22:00,77.0,64.0,30.04,SSW,213,1.0,6.0,64,0.00,,,0.00,,2013-07-27 14:22:00,
2013-07-27 10:33:00,78.0,64.0,30.04,ESE,117,0.0,6.0,62,0.00,,,0.00,,2013-07-27 14:33:00,
2013-07-27 10:54:00,77.0,62.0,30.04,SW,231,1.0,9.0,60,0.00,,,0.00,,2013-07-27 14:54:00,
2013-07-27 11:02:00,79.0,63.0,30.04,West,276,2.0,9.0,58,0.00,,,0.00,,2013-07-27 15:02:00,
2013-07-27 11:12:00,80.0,61.0,30.04,SSE,151,4.0,10.0,53,0.00,,,0.00,,2013-07-27 15:12:00,
2013-07-27 11:22:00,80.0,61.0,30.04,SSE,151,4.0,10.0,53,0.00,,,0.00,,2013-07-27 15:22:00,
2013-07-27 11:33:00,80.0,61.0,30.04,SSE,151,4.0,10.0,53,0.00,,,0.00,,2013-07-27 15:33:00,
2013-07-27 11:44:00,82.0,61.0,30.04,WSW,242,1.0,7.0,49,0.00,,,0.00,,2013-07-27 15:44:00,
2013-07-27 11:53:00,82.0,61.0,30.04,WSW,242,1.0,7.0,49,0.00,,,0.00,,2013-07-27 15:53:00,
2013-07-27 12:02:00,79.0,60.0,30.04,WSW,237,4.0,12.0,52,0.00,,,0.00,,2013-07-27 16:02:00,
2013-07-27 12:12:00,79.0,60.0,30.04,WSW,237,4.0,12.0,52,0.00,,,0.00,,2013-07-27 16:12:00,
2013-07-27 12:23:00,79.0,59.0,30.04,ESE,107,2.0,7.0,51,0.00,,,0.00,,2013-07-27 16:23:00,
2013-07-27 12:33:00,80.0,61.0,30.04,South,178,3.0,8.0,52,0.00,,,0.00,,2013-07-27 16:33:00,
2013-07-27 12:43:00,81.0,62.0,30.03,WSW,247,4.0,9.0,53,0.00,,,0.00,,2013-07-27 16:43:00,
2013-07-27 12:53:00,81.0,62.0,30.03,WSW,247,4.0,9.0,53,0.00,,,0.00,,2013-07-27 16:53:00,
2013-07-27 13:02:00,81.0,62.0,30.03,NW,307,3.0,8.0,53,0.00,,,0.00,,2013-07-27 17:02:00,
2013-07-27 13:12:00,81.0,62.0,30.02,WNW,283,5.0,9.0,52,0.00,,,0.00,,2013-07-27 17:12:00,
2013-07-27 13:23:00,81.0,62.0,30.02,WNW,283,5.0,9.0,52,0.00,,,0.00,,2013-07-27 17:23:00,
2013-07-27 13:32:00,81.0,61.0,30.02,WNW,283,4.0,9.0,50,0.00,,,0.00,,2013-07-27 17:32:00,
2013-07-27 13:43:00,82.0,61.0,30.02,WNW,292,6.0,11.0,50,0.00,,,0.00,,2013-07-27 17:43:00,
2013-07-27 13:53:00,82.0,61.0,30.02,WNW,292,6.0,11.0,50,0.00,,,0.00,,2013-07-27 17:53:00,
2013-07-27 14:03:00,82.0,60.0,30.01,West,262,2.0,10.0,47,0.00,,,0.00,,2013-07-27 18:03:00,
2013-07-27 14:22:00,83.0,61.0,30.01,WNW,302,5.0,12.0,47,0.00,,,0.00,,2013-07-27 18:22:00,
2013-07-27 14:33:00,83.0,60.0,30.01,West,266,2.0,10.0,46,0.00,,,0.00,,2013-07-27 18:33:00,
2013-07-27 14:43:00,82.0,59.0,30.00,North,351,1.0,6.0,46,0.00,,,0.00,,2013-07-27 18:43:00,
2013-07-27 14:53:00,82.0,59.0,30.00,North,351,1.0,6.0,46,0.00,,,0.00,,2013-07-27 18:53:00,
2013-07-27 15:02:00,84.0,62.0,29.99,WSW,248,3.0,8.0,47,0.00,,,0.00,,2013-07-27 19:02:00,
2013-07-27 15:12:00,83.0,61.0,29.99,NW,304,1.0,8.0,48,0.00,,,0.00,,2013-07-27 19:12:00,
2013-07-27 15:23:00,83.0,61.0,29.99,NW,304,1.0,8.0,48,0.00,,,0.00,,2013-07-27 19:23:00,
2013-07-27 15:32:00,83.0,61.0,29.99,NW,304,1.0,8.0,48,0.00,,,0.00,,2013-07-27 19:32:00,
2013-07-27 15:43:00,81.0,63.0,29.98,WSW,258,3.0,9.0,54,0.00,,,0.00,,2013-07-27 19:43:00,
2013-07-27 15:53:00,81.0,63.0,29.98,WSW,258,3.0,9.0,54,0.00,,,0.00,,2013-07-27 19:53:00,
2013-07-27 16:02:00,82.0,64.0,29.98,WSW,238,2.0,6.0,54,0.00,,,0.00,,2013-07-27 20:02:00,
2013-07-27 16:12:00,82.0,64.0,29.98,WSW,238,2.0,6.0,54,0.00,,,0.00,,2013-07-27 20:12:00,
2013-07-27 16:23:00,82.0,63.0,29.98,ESE,115,1.0,8.0,52,0.00,,,0.00,,2013-07-27 20:23:00,
2013-07-27 16:32:00,83.0,65.0,29.97,SSE,152,0.0,6.0,54,0.00,,,0.00,,2013-07-27 20:32:00,
2013-07-27 16:43:00,82.0,63.0,29.96,East,94,1.0,7.0,52,0.00,,,0.00,,2013-07-27 20:43:00,
2013-07-27 16:52:00,82.0,63.0,29.96,East,94,1.0,7.0,52,0.00,,,0.00,,2013-07-27 20:52:00,
2013-07-27 17:03:00,82.0,63.0,29.96,SE,124,2.0,6.0,53,0.00,,,0.00,,2013-07-27 21:03:00,
2013-07-27 17:12:00,82.0,64.0,29.96,SE,134,1.0,7.0,54,0.00,,,0.00,,2013-07-27 21:12:00,
2013-07-27 17:23:00,82.0,64.0,29.96,SE,134,1.0,7.0,54,0.00,,,0.00,,2013-07-27 21:23:00,
2013-07-27 17:33:00,81.0,63.0,29.96,SSE,163,1.0,8.0,55,0.00,,,0.00,,2013-07-27 21:33:00,
2013-07-27 17:43:00,81.0,65.0,29.96,ESE,103,2.0,7.0,58,0.00,,,0.00,,2013-07-27 21:43:00,
2013-07-27 17:52:00,81.0,65.0,29.96,ESE,103,2.0,7.0,58,0.00,,,0.00,,2013-07-27 21:52:00,
2013-07-27 18:02:00,81.0,64.0,29.95,SSW,199,3.0,8.0,57,0.00,,,0.00,,2013-07-27 22:02:00,
2013-07-27 18:12:00,79.0,62.0,29.95,ENE,61,2.0,10.0,57,0.00,,,0.00,,2013-07-27 22:12:00,
2013-07-27 18:22:00,79.0,62.0,29.95,ENE,61,2.0,10.0,57,0.00,,,0.00,,2013-07-27 22:22:00,
2013-07-27 18:33:00,79.0,62.0,29.95,ESE,118,3.0,8.0,57,0.00,,,0.00,,2013-07-27 22:33:00,
2013-07-27 18:43:00,79.0,62.0,29.95,SE,133,2.0,13.0,57,0.00,,,0.00,,2013-07-27 22:43:00,
2013-07-27 18:53:00,79.0,62.0,29.95,SE,133,2.0,13.0,57,0.00,,,0.00,,2013-07-27 22:53:00,
2013-07-27 19:02:00,79.0,62.0,29.95,ESE,102,2.0,7.0,56,0.00,,,0.00,,2013-07-27 23:02:00,
2013-07-27 19:12:00,78.0,61.0,29.95,ESE,114,2.0,11.0,55,0.00,,,0.00,,2013-07-27 23:12:00,
2013-07-27 19:22:00,78.0,61.0,29.95,ESE,114,2.0,11.0,55,0.00,,,0.00,,2013-07-27 23:22:00,
2013-07-27 19:32:00,77.0,60.0,29.95,East,94,3.0,9.0,56,0.00,,,0.00,,2013-07-27 23:32:00,
2013-07-27 19:44:00,77.0,61.0,29.96,ESE,120,1.0,7.0,58,0.00,,,0.00,,2013-07-27 23:44:00,
2013-07-27 19:52:00,77.0,61.0,29.96,ESE,120,1.0,7.0,58,0.00,,,0.00,,2013-07-27 23:52:00,
2013-07-27 20:02:00,75.0,60.0,29.97,East,93,3.0,8.0,60,0.00,,,0.00,,2013-07-28 00:02:00,
2013-07-27 20:12:00,75.0,61.0,29.97,ESE,112,4.0,9.0,61,0.00,,,0.00,,2013-07-28 00:12:00,
2013-07-27 20:23:00,75.0,61.0,29.97,ESE,112,4.0,9.0,61,0.00,,,0.00,,2013-07-28 00:23:00,
2013-07-27 20:32:00,74.0,60.0,29.97,SE,126,1.0,7.0,62,0.00,,,0.00,,2013-07-28 00:32:00,
2013-07-27 20:53:00,74.0,61.0,29.97,South,188,2.0,6.0,63,0.00,,,0.00,,2013-07-28 00:53:00,
2013-07-27 21:02:00,73.0,60.0,29.98,ESE,114,0.0,5.0,64,0.00,,,0.00,,2013-07-28 01:02:00,
2013-07-27 21:12:00,73.0,61.0,29.99,WSW,243,0.0,3.0,66,0.00,,,0.00,,2013-07-28 01:12:00,
2013-07-27 21:23:00,73.0,61.0,29.99,WSW,243,0.0,3.0,66,0.00,,,0.00,,2013-07-28 01:23:00,
2013-07-27 21:32:00,72.0,62.0,30.00,South,183,1.0,8.0,70,0.00,,,0.00,,2013-07-28 01:32:00,
2013-07-27 21:43:00,72.0,63.0,30.00,ESE,119,0.0,3.0,73,0.00,,,0.00,,2013-07-28 01:43:00,
2013-07-27 21:53:00,72.0,63.0,30.00,ESE,119,0.0,3.0,73,0.00,,,0.00,,2013-07-28 01:53:00,
2013-07-27 22:03:00,71.0,63.0,29.99,West,274,3.0,6.0,76,0.00,,,0.00,,2013-07-28 02:03:00,
2013-07-27 22:12:00,71.0,63.0,29.99,SSW,212,1.0,4.0,77,0.00,,,0.00,,2013-07-28 02:12:00,
2013-07-27 22:23:00,71.0,63.0,29.99,SSW,212,1.0,4.0,77,0.00,,,0.00,,2013-07-28 02:23:00,
2013-07-27 22:32:00,71.0,64.0,29.99,South,172,0.0,3.0,79,0.00,,,0.00,,2013-07-28 02:32:00,
2013-07-27 22:53:00,70.0,63.0,29.99,ESE,105,0.0,3.0,79,0.00,,,0.00,,2013-07-28 02:53:00,
2013-07-27 23:03:00,70.0,64.0,29.98,NE,50,0.0,1.0,81,0.00,,,0.00,,2013-07-28 03:03:00,
2013-07-27 23:12:00,69.0,64.0,29.98,ENE,73,0.0,0.0,84,0.00,,,0.00,,2013-07-28 03:12:00,
2013-07-27 23:22:00,69.0,64.0,29.98,ENE,73,0.0,0.0,84,0.00,,,0.00,,2013-07-28 03:22:00,
2013-07-27 23:32:00,68.0,64.0,29.97,ENE,72,0.0,1.0,86,0.00,,,0.00,,2013-07-28 03:32:00,
2013-07-27 23:42:00,68.0,64.0,29.96,East,80,0.0,1.0,87,0.00,,,0.00,,2013-07-28 03:42:00,
2013-07-27 23:53:00,68.0,64.0,29.96,East,80,0.0,1.0,87,0.00,,,0.00,,2013-07-28 03:53:00,